Time;durP1;ratioP1;P1;durP2;ratioP2;P2;SDS_P1;SDS_P2;PMS_P1;PMS_P2;Temp;Humidity;BMP_temperature;BMP_pressure;BME280_temperature;BME280_humidity;BME280_pressure;Samples;Min_cycle;Max_cycle;Signal;HPM_P1;HPM_P2
2023/11/21 00:02:25;;;;;;;19.35;8.73;;;;;;;12.71;73.53;101175.72;5012347;28;20045;-46
2023/11/21 00:04:50;;;;;;;22.05;8.57;;;;;;;12.80;73.50;101184.56;5012454;28;20033;-46
2023/11/21 00:07:16;;;;;;;20.88;9.05;;;;;;;12.70;73.90;101187.03;5012412;28;20038;-46
2023/11/21 00:09:42;;;;;;;21.67;8.80;;;;;;;12.62;74.25;101193.97;5012898;28;20648;-45
2023/11/21 00:12:10;;;;;;;21.40;8.70;;;;;;;12.77;74.20;101187.13;5012486;28;20044;-49
2023/11/21 00:14:38;;;;;;;21.88;8.98;;;;;;;12.81;73.81;101194.13;5012830;28;20034;-48
2023/11/21 00:17:05;;;;;;;17.70;8.55;;;;;;;12.88;73.71;101192.44;5012502;28;20484;-48
2023/11/21 00:19:31;;;;;;;18.85;8.48;;;;;;;12.95;73.55;101192.53;5018187;28;20030;-45
2023/11/21 00:21:58;;;;;;;17.08;7.85;;;;;;;12.95;73.60;101195.16;5020420;28;20056;-49
2023/11/21 00:24:24;;;;;;;26.33;8.27;;;;;;;12.88;73.90;101187.22;5014011;28;20030;-45
2023/11/21 00:26:50;;;;;;;20.08;8.43;;;;;;;12.95;73.98;101187.28;5012607;28;20040;-45
2023/11/21 00:29:17;;;;;;;18.83;8.20;;;;;;;13.03;73.76;101187.38;5012258;28;20042;-46
2023/11/21 00:31:43;;;;;;;19.70;8.45;;;;;;;13.09;73.76;101190.03;5012328;28;20439;-47
2023/11/21 00:34:08;;;;;;;16.92;7.90;;;;;;;13.12;73.56;101190.06;5010308;28;20731;-47
2023/11/21 00:36:33;;;;;;;24.20;8.80;;;;;;;13.16;73.61;101189.25;5012096;28;20116;-46
2023/11/21 00:38:59;;;;;;;18.48;8.10;;;;;;;13.04;74.05;101202.22;5010836;28;20058;-51
2023/11/21 00:41:27;;;;;;;20.83;8.27;;;;;;;13.14;73.81;101190.97;5010857;28;20042;-46
2023/11/21 00:43:53;;;;;;;20.92;7.65;;;;;;;13.23;73.51;101191.06;5012055;28;20091;-46
2023/11/21 00:46:18;;;;;;;18.92;7.95;;;;;;;13.31;73.37;101189.34;5011394;28;20124;-44
2023/11/21 00:48:43;;;;;;;17.63;7.93;;;;;;;13.32;73.52;101190.25;5011927;28;20026;-45
2023/11/21 00:51:09;;;;;;;17.73;8.20;;;;;;;13.36;73.43;101192.00;5011283;28;20034;-50
2023/11/21 00:53:34;;;;;;;18.15;7.57;;;;;;;13.38;73.28;101192.91;5012268;28;20094;-46
2023/11/21 00:55:59;;;;;;;18.75;7.53;;;;;;;13.41;72.93;101187.69;5011639;28;20042;-46
2023/11/21 00:58:25;;;;;;;20.45;7.60;;;;;;;13.36;73.42;101192.88;5011900;28;20038;-45
2023/11/21 01:00:50;;;;;;;18.88;7.60;;;;;;;13.27;73.64;101192.81;5012631;28;20041;-46
2023/11/21 01:03:16;;;;;;;18.63;7.32;;;;;;;13.25;73.90;101204.13;5011731;28;20060;-47
2023/11/21 01:05:41;;;;;;;17.02;7.63;;;;;;;13.25;73.86;101201.53;5012414;28;20037;-44
2023/11/21 01:08:06;;;;;;;16.23;6.85;;;;;;;13.38;73.54;101206.88;5011152;28;20076;-44
2023/11/21 01:10:34;;;;;;;16.42;7.47;;;;;;;13.47;73.27;101215.66;5011681;28;20046;-47
2023/11/21 01:12:59;;;;;;;18.15;6.93;;;;;;;13.23;73.71;101214.63;5012312;28;20500;-50
2023/11/21 01:15:25;;;;;;;13.70;6.78;;;;;;;13.37;73.69;101215.59;5014937;28;20045;-44
2023/11/21 01:17:51;;;;;;;14.35;6.78;;;;;;;13.45;73.36;101225.25;5021073;28;20558;-46
2023/11/21 01:20:17;;;;;;;21.58;7.13;;;;;;;13.31;73.71;101225.13;5018515;28;20311;-46
2023/11/21 01:22:42;;;;;;;18.58;7.00;;;;;;;13.24;74.05;101229.44;5012619;28;20030;-49
2023/11/21 01:25:08;;;;;;;17.52;7.38;;;;;;;13.10;74.54;101236.28;5010958;28;20041;-47
2023/11/21 01:27:34;;;;;;;18.90;7.47;;;;;;;13.28;74.04;101233.88;5011797;28;20440;-46
2023/11/21 01:30:01;;;;;;;19.48;7.38;;;;;;;13.38;73.81;101237.41;5011089;28;20115;-46
2023/11/21 01:32:26;;;;;;;16.20;7.30;;;;;;;13.36;73.87;101240.03;5012309;28;20717;-46
2023/11/21 01:34:51;;;;;;;16.25;6.95;;;;;;;13.42;73.86;101239.19;5011787;28;20041;-47
2023/11/21 01:37:17;;;;;;;15.70;6.60;;;;;;;13.48;73.55;101246.25;5011314;28;20033;-43
2023/11/21 01:39:44;;;;;;;22.17;7.28;;;;;;;13.49;73.53;101247.97;5011291;28;20042;-44
2023/11/21 01:42:12;;;;;;;22.92;7.40;;;;;;;13.46;73.46;101240.09;5010286;28;20049;-47
2023/11/21 01:44:38;;;;;;;18.02;7.03;;;;;;;13.42;73.74;101251.44;5010897;28;20034;-48
2023/11/21 01:47:05;;;;;;;19.35;6.88;;;;;;;13.42;73.67;101239.19;5010263;28;20041;-48
2023/11/21 01:49:33;;;;;;;21.35;7.28;;;;;;;13.18;74.28;101258.19;5010504;28;20034;-45
2023/11/21 01:51:59;;;;;;;17.38;7.32;;;;;;;13.36;73.99;101260.97;5010702;28;20490;-45
2023/11/21 01:54:25;;;;;;;17.50;7.45;;;;;;;13.29;74.06;101260.94;5010541;28;20034;-47
2023/11/21 01:56:50;;;;;;;14.45;6.78;;;;;;;13.42;73.71;101264.53;5010886;28;20676;-47
2023/11/21 01:59:21;;;;;;;17.90;7.13;;;;;;;13.47;73.71;101261.06;5009862;28;20045;-47
2023/11/21 02:01:46;;;;;;;22.10;7.30;;;;;;;13.45;73.85;101265.41;5010536;28;20496;-48
2023/11/21 02:04:13;;;;;;;15.43;7.05;;;;;;;13.45;73.88;101257.56;5010156;28;20040;-48
2023/11/21 02:06:38;;;;;;;17.15;6.80;;;;;;;13.40;73.88;101262.78;5010688;28;20037;-46
2023/11/21 02:09:04;;;;;;;17.95;6.82;;;;;;;13.39;73.66;101270.59;5009912;28;20447;-47
2023/11/21 02:11:30;;;;;;;19.08;6.97;;;;;;;13.35;74.28;101266.22;5011503;28;20399;-42
2023/11/21 02:13:58;;;;;;;16.90;6.82;;;;;;;13.49;73.60;101269.81;5011449;28;20034;-44
2023/11/21 02:16:23;;;;;;;18.42;7.28;;;;;;;13.50;73.55;101270.69;5010738;28;20121;-46
2023/11/21 02:18:49;;;;;;;16.90;7.53;;;;;;;13.33;74.03;101276.66;5011038;28;20112;-44
2023/11/21 02:21:14;;;;;;;20.67;7.38;;;;;;;13.49;73.86;101277.66;5010225;28;20104;-47
2023/11/21 02:23:44;;;;;;;21.65;8.40;;;;;;;13.52;73.63;101274.19;5010725;28;20560;-48
2023/11/21 02:26:10;;;;;;;25.10;8.32;;;;;;;13.62;73.34;101273.38;5009528;28;20049;-51
2023/11/21 02:28:35;;;;;;;20.60;7.95;;;;;;;13.62;73.76;101276.91;5010326;28;20026;-45
2023/11/21 02:31:02;;;;;;;23.23;7.82;;;;;;;13.68;73.61;101278.69;5009585;28;20687;-49
2023/11/21 02:33:28;;;;;;;22.35;7.50;;;;;;;13.74;73.51;101276.09;5009883;28;20041;-46
2023/11/21 02:35:54;;;;;;;26.17;8.30;;;;;;;13.76;73.77;101287.47;5010062;28;20037;-48
2023/11/21 02:38:20;;;;;;;26.30;8.10;;;;;;;13.77;73.78;101279.63;5009291;28;20124;-51
2023/11/21 02:40:46;;;;;;;19.30;7.55;;;;;;;13.86;73.64;101286.66;5009816;28;20034;-48
2023/11/21 02:43:11;;;;;;;26.45;8.13;;;;;;;13.84;73.63;101282.28;5009625;28;20084;-49
2023/11/21 02:45:37;;;;;;;23.15;7.50;;;;;;;13.81;73.61;101286.66;5009890;28;20045;-48
2023/11/21 02:48:02;;;;;;;24.17;8.05;;;;;;;13.86;73.56;101278.81;5009539;28;20034;-46
2023/11/21 02:50:27;;;;;;;18.63;8.45;;;;;;;13.85;73.65;101281.41;5009896;28;20104;-48
2023/11/21 02:52:53;;;;;;;22.50;7.90;;;;;;;13.82;73.71;101285.78;5009948;28;20038;-46
2023/11/21 02:55:19;;;;;;;21.48;7.57;;;;;;;13.88;73.66;101291.94;5009166;28;20128;-47
2023/11/21 02:57:44;;;;;;;19.35;7.25;;;;;;;13.89;73.86;101291.94;5009983;28;20030;-48
2023/11/21 03:00:10;;;;;;;19.20;7.20;;;;;;;13.91;73.79;101287.56;5008984;28;20505;-46
2023/11/21 03:02:38;;;;;;;19.75;7.43;;;;;;;13.95;73.55;101293.72;5009586;28;20038;-48
2023/11/21 03:05:05;;;;;;;18.42;6.60;;;;;;;14.03;73.62;101299.88;5011666;28;20149;-45
2023/11/21 03:07:31;;;;;;;18.50;7.45;;;;;;;13.94;73.70;101305.94;5013697;28;20087;-45
2023/11/21 03:09:56;;;;;;;18.80;7.25;;;;;;;13.97;73.86;101303.31;5014682;28;20124;-46
2023/11/21 03:12:21;;;;;;;21.30;7.70;;;;;;;13.96;73.69;101298.97;5012643;28;20042;-49
2023/11/21 03:14:47;;;;;;;18.42;6.93;;;;;;;14.09;73.43;101294.66;5012617;28;20500;-47
2023/11/21 03:17:14;;;;;;;24.17;7.50;;;;;;;14.06;73.32;101297.28;5013382;28;20121;-47
2023/11/21 03:19:41;;;;;;;19.50;7.40;;;;;;;14.05;73.36;101303.38;5013707;28;20081;-45
2023/11/21 03:22:06;;;;;;;21.10;7.75;;;;;;;13.88;74.01;101298.03;5013228;28;20084;-47
2023/11/21 03:24:32;;;;;;;24.15;7.80;;;;;;;13.45;76.17;101293.34;5014012;28;20069;-50
2023/11/21 03:26:57;;;;;;;23.63;8.18;;;;;;;13.64;76.06;101303.13;5014081;28;20112;-44
2023/11/21 03:29:22;;;;;;;20.17;7.70;;;;;;;13.67;75.48;101305.75;5013165;28;20029;-45
2023/11/21 03:31:48;;;;;;;20.27;7.75;;;;;;;13.78;75.17;101314.59;5013820;28;20040;-44
2023/11/21 03:34:27;;;;;;;20.65;7.70;;;;;;;13.76;74.87;101314.56;5014033;28;20079;-44
2023/11/21 03:36:53;;;;;;;22.58;7.45;;;;;;;13.85;74.95;101316.34;5014770;28;20062;-49
2023/11/21 03:39:20;;;;;;;18.42;7.38;;;;;;;13.76;75.13;101313.69;5014326;28;20140;-46
2023/11/21 03:41:45;;;;;;;22.17;7.57;;;;;;;13.73;75.55;101324.13;5015251;28;20034;-46
2023/11/21 03:44:10;;;;;;;17.75;7.30;;;;;;;13.86;75.00;101325.97;5012671;28;20038;-49
2023/11/21 03:46:36;;;;;;;14.45;6.65;;;;;;;13.96;74.73;101324.31;5013305;28;20068;-45
2023/11/21 03:49:01;;;;;;;19.75;7.15;;;;;;;13.86;75.03;101332.97;5012811;28;20137;-49
2023/11/21 03:51:26;;;;;;;16.85;7.20;;;;;;;13.86;75.32;101333.84;5013730;28;20038;-45
2023/11/21 03:53:52;;;;;;;19.05;7.32;;;;;;;13.97;74.80;101333.91;5013741;28;20041;-45
2023/11/21 03:56:17;;;;;;;18.17;7.03;;;;;;;14.00;74.63;101344.44;5012682;28;20472;-46
2023/11/21 03:58:43;;;;;;;20.17;6.45;;;;;;;14.04;74.53;101347.06;5013124;28;20033;-45
2023/11/21 04:01:08;;;;;;;14.10;7.28;;;;;;;13.88;75.09;101339.97;5013029;28;20500;-44
2023/11/21 04:03:33;;;;;;;19.38;7.18;;;;;;;13.75;75.89;101359.09;5012373;28;20404;-45
2023/11/21 04:05:59;;;;;;;15.43;7.00;;;;;;;13.73;75.86;101359.06;5014059;28;20407;-45
2023/11/21 04:08:25;;;;;;;20.92;7.43;;;;;;;13.66;76.38;101356.41;5013767;28;20034;-46
2023/11/21 04:10:53;;;;;;;18.98;7.13;;;;;;;13.82;76.08;101353.03;5013297;28;20034;-46
2023/11/21 04:13:19;;;;;;;15.85;6.63;;;;;;;14.06;74.99;101362.81;5017028;28;20038;-48
2023/11/21 04:15:44;;;;;;;15.73;7.00;;;;;;;14.12;74.74;101360.25;5016437;28;20045;-50
2023/11/21 04:18:10;;;;;;;19.70;6.70;;;;;;;14.23;74.51;101369.06;5014022;28;20042;-44
2023/11/21 04:20:35;;;;;;;22.15;6.88;;;;;;;14.17;74.73;101372.50;5019056;28;20045;-43
2023/11/21 04:23:01;;;;;;;17.83;6.35;;;;;;;14.20;74.44;101374.28;5017944;28;20038;-46
2023/11/21 04:25:27;;;;;;;18.27;6.60;;;;;;;14.24;74.42;101373.44;5017093;28;20037;-44
2023/11/21 04:27:52;;;;;;;13.70;6.40;;;;;;;14.27;74.62;101385.69;5012927;28;20045;-45
2023/11/21 04:30:18;;;;;;;16.70;6.22;;;;;;;14.27;74.67;101386.59;5011833;28;20104;-46
2023/11/21 04:32:43;;;;;;;19.67;6.78;;;;;;;14.11;75.05;101395.19;5012223;28;20037;-44
2023/11/21 04:35:09;;;;;;;20.25;6.63;;;;;;;14.14;74.99;101389.97;5011781;28;20525;-44
2023/11/21 04:37:34;;;;;;;14.43;6.07;;;;;;;14.22;74.97;101389.16;5012136;28;20029;-45
2023/11/21 04:40:00;;;;;;;14.77;5.93;;;;;;;14.32;74.46;101394.47;5011513;28;20034;-47
2023/11/21 04:42:25;;;;;;;14.65;5.72;;;;;;;14.39;73.99;101391.06;5011950;28;20140;-44
2023/11/21 04:44:52;;;;;;;15.07;6.03;;;;;;;14.31;74.43;101393.59;5011632;28;20061;-45
2023/11/21 04:47:19;;;;;;;18.08;6.25;;;;;;;14.30;74.18;101398.81;5010257;28;20125;-46
2023/11/21 04:49:47;;;;;;;14.85;6.10;;;;;;;14.29;74.32;101395.31;5011894;28;20061;-45
2023/11/21 04:52:12;;;;;;;14.52;5.53;;;;;;;14.27;73.83;101411.94;5011224;28;20026;-44
2023/11/21 04:54:39;;;;;;;13.98;5.78;;;;;;;14.21;73.73;101408.38;5011799;28;20041;-46
2023/11/21 04:57:07;;;;;;;14.38;5.63;;;;;;;14.16;73.68;101420.56;5011623;28;20381;-44
2023/11/21 04:59:32;;;;;;;14.23;5.70;;;;;;;14.10;73.34;101411.78;5012014;28;20037;-47
2023/11/21 05:01:59;;;;;;;11.38;5.50;;;;;;;14.01;72.99;101417.84;5011472;28;20042;-44
2023/11/21 05:04:25;;;;;;;12.68;5.20;;;;;;;13.94;72.87;101417.78;5010684;28;20043;-44
2023/11/21 05:06:50;;;;;;;9.65;5.55;;;;;;;13.86;73.13;101416.81;5011298;28;20034;-48
2023/11/21 05:09:16;;;;;;;12.18;5.15;;;;;;;13.76;73.36;101424.63;5010387;28;20041;-44
2023/11/21 05:11:41;;;;;;;9.73;5.05;;;;;;;13.76;73.04;101435.09;5011676;28;20037;-44
2023/11/21 05:14:07;;;;;;;11.88;5.43;;;;;;;13.53;73.99;101441.00;5010433;28;20038;-44
2023/11/21 05:16:34;;;;;;;9.93;5.00;;;;;;;13.53;73.95;101446.22;5011554;28;20558;-45
2023/11/21 05:19:00;;;;;;;10.90;5.18;;;;;;;13.61;73.64;101440.19;5010756;28;20037;-50
2023/11/21 05:21:27;;;;;;;14.52;5.47;;;;;;;13.55;74.16;101444.47;5011246;28;20038;-44
2023/11/21 05:23:52;;;;;;;11.05;5.22;;;;;;;13.65;73.56;101447.22;5011267;28;20041;-43
2023/11/21 05:26:17;;;;;;;9.30;4.85;;;;;;;13.58;73.82;101452.38;5011250;28;20040;-46
2023/11/21 05:28:43;;;;;;;10.63;4.60;;;;;;;13.59;73.64;101462.88;5011766;28;20436;-44
2023/11/21 05:31:08;;;;;;;9.77;4.80;;;;;;;13.65;73.44;101469.94;5012155;28;20056;-44
2023/11/21 05:33:33;;;;;;;12.85;5.03;;;;;;;13.62;73.84;101462.91;5012745;28;20041;-49
2023/11/21 05:35:58;;;;;;;11.30;5.25;;;;;;;13.72;74.07;101474.38;5012896;28;20137;-44
2023/11/21 05:38:24;;;;;;;10.02;4.88;;;;;;;13.60;75.10;101475.09;5011446;28;20507;-45
2023/11/21 05:40:50;;;;;;;8.05;4.43;;;;;;;13.78;74.99;101472.66;5011518;28;20038;-45
2023/11/21 05:43:15;;;;;;;8.75;4.30;;;;;;;13.93;74.94;101471.06;5009259;28;20088;-45
2023/11/21 05:45:40;;;;;;;10.52;4.10;;;;;;;13.94;74.80;101470.22;5011068;28;20124;-45
2023/11/21 05:48:06;;;;;;;8.95;4.75;;;;;;;13.74;76.68;101475.25;5010333;28;20128;-44
2023/11/21 05:50:32;;;;;;;8.57;3.70;;;;;;;14.00;75.18;101481.63;5010632;28;20057;-46
2023/11/21 05:52:59;;;;;;;8.15;3.90;;;;;;;13.98;76.05;101487.72;5010706;28;20550;-45
2023/11/21 05:55:25;;;;;;;8.07;4.10;;;;;;;13.90;76.88;101489.41;5010677;28;20148;-48
2023/11/21 05:57:51;;;;;;;11.43;3.95;;;;;;;14.02;76.59;101495.63;5010707;28;20044;-43
2023/11/21 06:00:25;;;;;;;8.57;3.97;;;;;;;14.06;75.99;101501.78;5010381;28;20040;-47
2023/11/21 06:02:52;;;;;;;6.50;3.45;;;;;;;14.29;75.16;101504.59;5010264;28;20033;-45
2023/11/21 06:05:19;;;;;;;7.55;3.70;;;;;;;14.11;75.69;101513.19;5010244;28;20415;-47
2023/11/21 06:07:44;;;;;;;7.07;3.75;;;;;;;14.25;75.35;101516.81;5010473;28;20038;-47
2023/11/21 06:10:14;;;;;;;8.07;3.40;;;;;;;14.28;74.94;101518.56;5009645;28;20037;-44
2023/11/21 06:12:42;;;;;;;8.32;3.65;;;;;;;14.13;75.38;101522.84;5010262;28;20495;-45
2023/11/21 06:15:09;;;;;;;6.65;3.53;;;;;;;14.25;75.21;101514.19;5009433;28;20045;-47
2023/11/21 06:17:39;;;;;;;9.38;3.60;;;;;;;14.32;74.62;101513.38;5010556;28;20514;-45
2023/11/21 06:20:09;;;;;;;5.60;3.15;;;;;;;14.25;73.90;101522.06;5009769;28;20033;-46
2023/11/21 06:22:38;;;;;;;7.28;3.80;;;;;;;14.20;72.91;101523.78;5010322;28;20042;-44
2023/11/21 06:25:05;;;;;;;8.43;3.50;;;;;;;14.00;73.63;101531.44;5009738;28;20127;-51
2023/11/21 06:27:32;;;;;;;8.48;3.70;;;;;;;13.79;74.96;101525.97;5010157;28;20037;-49
2023/11/21 06:29:58;;;;;;;7.43;3.85;;;;;;;13.82;73.89;101533.88;5010339;28;20034;-49
2023/11/21 06:32:23;;;;;;;8.45;3.47;;;;;;;13.78;73.18;101538.19;5009893;28;20665;-44
2023/11/21 06:34:49;;;;;;;6.53;3.50;;;;;;;13.73;73.19;101539.00;5009844;28;20037;-48
2023/11/21 06:37:15;;;;;;;8.95;3.20;;;;;;;13.67;73.03;101534.56;5009458;28;20057;-48
2023/11/21 06:39:40;;;;;;;8.73;3.50;;;;;;;13.57;72.89;101540.59;5009053;28;20025;-52
2023/11/21 06:42:05;;;;;;;6.18;3.33;;;;;;;13.50;72.83;101554.47;5009719;28;20045;-44
2023/11/21 06:44:31;;;;;;;5.93;3.70;;;;;;;13.43;73.27;101562.22;5010064;28;20026;-48
2023/11/21 06:46:56;;;;;;;7.97;3.83;;;;;;;13.41;73.76;101564.84;5009924;28;20108;-47
2023/11/21 06:49:23;;;;;;;8.82;3.60;;;;;;;13.42;73.58;101565.72;5009823;28;20131;-44
2023/11/21 06:51:48;;;;;;;8.52;3.70;;;;;;;13.46;73.83;101575.38;5010229;28;20403;-44
2023/11/21 06:54:14;;;;;;;7.85;3.55;;;;;;;13.45;74.18;101571.88;5008805;28;20231;-47
2023/11/21 06:56:39;;;;;;;12.82;3.53;;;;;;;13.57;74.38;101579.00;5009910;28;20030;-48
2023/11/21 06:59:05;;;;;;;9.15;3.88;;;;;;;13.61;75.71;101584.28;5009803;28;20045;-44
2023/11/21 07:01:34;;;;;;;5.75;3.28;;;;;;;13.71;74.89;101586.19;5010219;28;20084;-42
2023/11/21 07:03:59;;;;;;;8.52;3.28;;;;;;;13.72;74.59;101585.28;5010411;28;20129;-42
2023/11/21 07:06:24;;;;;;;8.68;3.25;;;;;;;13.80;74.94;101585.38;5010044;28;20109;-42
2023/11/21 07:08:49;;;;;;;10.25;3.67;;;;;;;13.79;74.68;101597.59;5010370;28;20411;-47
2023/11/21 07:11:15;;;;;;;7.47;3.50;;;;;;;13.86;74.85;101603.81;5009500;28;20407;-42
2023/11/21 07:13:40;;;;;;;9.65;3.30;;;;;;;13.84;75.37;101600.31;5010880;28;20092;-45
2023/11/21 07:16:06;;;;;;;12.23;3.67;;;;;;;13.87;75.94;101609.94;5011004;28;20041;-42
2023/11/21 07:18:31;;;;;;;9.75;3.80;;;;;;;13.89;76.71;101614.34;5010555;28;20049;-46
2023/11/21 07:20:58;;;;;;;10.65;3.83;;;;;;;13.49;78.18;101619.91;5011441;28;20041;-47
2023/11/21 07:23:24;;;;;;;9.30;3.50;;;;;;;13.55;78.61;101618.25;5013137;28;20089;-48
2023/11/21 07:25:49;;;;;;;9.98;3.20;;;;;;;13.86;78.17;101626.50;5018183;28;20050;-47
2023/11/21 07:28:15;;;;;;;11.55;3.20;;;;;;;13.82;77.73;101634.34;5021587;28;20034;-48
2023/11/21 07:30:40;;;;;;;12.77;3.50;;;;;;;13.77;77.76;101629.91;5010491;28;20057;-46
2023/11/21 07:33:07;;;;;;;7.57;2.97;;;;;;;14.18;76.85;101636.50;5009309;28;20381;-44
2023/11/21 07:35:32;;;;;;;11.60;3.28;;;;;;;14.35;76.13;101633.16;5010150;28;20069;-45
2023/11/21 07:37:58;;;;;;;13.57;3.47;;;;;;;14.31;76.10;101642.75;5010036;28;20053;-45
2023/11/21 07:40:23;;;;;;;18.05;4.18;;;;;;;14.40;75.48;101644.63;5009721;28;20042;-46
2023/11/21 07:42:50;;;;;;;9.35;3.55;;;;;;;14.53;75.52;101651.75;5009560;28;20064;-47
2023/11/21 07:45:15;;;;;;;10.82;3.80;;;;;;;14.43;75.31;101652.53;5008665;28;20439;-48
2023/11/21 07:47:41;;;;;;;9.90;3.78;;;;;;;14.58;75.33;101656.16;5009328;28;20041;-45
2023/11/21 07:50:07;;;;;;;13.07;3.95;;;;;;;14.51;75.44;101661.38;5009669;28;20472;-45
2023/11/21 07:52:33;;;;;;;10.60;3.80;;;;;;;14.42;75.74;101656.91;5012753;28;20033;-47
2023/11/21 07:54:58;;;;;;;12.68;3.95;;;;;;;14.68;75.05;101667.66;5013015;28;20041;-46
2023/11/21 07:57:24;;;;;;;9.38;3.88;;;;;;;14.57;74.94;101669.31;5012293;28;20384;-45
2023/11/21 07:59:49;;;;;;;9.07;3.83;;;;;;;14.72;75.05;101669.44;5012521;28;20046;-49
2023/11/21 08:02:16;;;;;;;12.05;4.25;;;;;;;14.56;75.29;101676.28;5012255;28;20052;-48
2023/11/21 08:04:41;;;;;;;10.60;3.83;;;;;;;14.76;74.61;101683.47;5012699;28;20030;-44
2023/11/21 08:07:07;;;;;;;9.70;4.07;;;;;;;14.71;74.49;101688.66;5012163;28;20523;-46
2023/11/21 08:09:34;;;;;;;12.50;4.07;;;;;;;15.02;73.88;101693.31;5012450;28;20044;-51
2023/11/21 08:12:00;;;;;;;12.15;4.32;;;;;;;14.91;74.41;101701.97;5011191;28;20041;-48
2023/11/21 08:14:25;;;;;;;12.80;4.70;;;;;;;14.77;73.98;101704.47;5012341;28;20038;-44
2023/11/21 08:16:52;;;;;;;14.43;4.90;;;;;;;14.74;74.08;101704.47;5012337;28;20026;-47
2023/11/21 08:19:18;;;;;;;11.88;4.50;;;;;;;14.79;73.36;101704.50;5011810;28;20037;-46
2023/11/21 08:21:43;;;;;;;17.80;6.00;;;;;;;14.74;72.74;101708.81;5010574;28;20030;-47
2023/11/21 08:24:10;;;;;;;22.00;10.15;;;;;;;14.93;72.99;101711.63;5012155;28;20026;-52
2023/11/21 08:26:36;;;;;;;15.60;6.90;;;;;;;15.00;72.57;101716.06;5012369;28;20293;-45
2023/11/21 08:29:02;;;;;;;13.88;5.82;;;;;;;15.03;71.96;101707.34;5011751;28;20033;-46
2023/11/21 08:31:28;;;;;;;14.30;5.30;;;;;;;15.29;71.64;101715.44;5011883;28;20084;-48
2023/11/21 08:33:57;;;;;;;12.10;4.95;;;;;;;15.20;71.65;101712.72;5012376;28;20030;-45
2023/11/21 08:36:25;;;;;;;12.95;4.72;;;;;;;14.94;72.30;101713.38;5011648;28;20113;-45
2023/11/21 08:38:54;;;;;;;11.43;4.50;;;;;;;15.09;71.13;101712.63;5012446;28;20030;-46
2023/11/21 08:41:23;;;;;;;12.55;4.55;;;;;;;15.08;70.88;101708.25;5012267;28;21329;-43
2023/11/21 08:43:50;;;;;;;11.38;4.40;;;;;;;14.71;72.36;101704.41;5012627;28;20030;-48
2023/11/21 08:46:17;;;;;;;10.68;3.83;;;;;;;14.91;72.12;101709.84;5010370;28;20084;-45
2023/11/21 08:48:43;;;;;;;8.23;3.38;;;;;;;15.08;71.32;101718.75;5010432;28;20030;-46
2023/11/21 08:51:11;;;;;;;11.98;5.30;;;;;;;15.08;71.20;101710.88;5011537;28;20113;-50
2023/11/21 08:53:37;;;;;;;12.38;4.93;;;;;;;15.01;71.77;101720.44;5011666;28;20054;-50
2023/11/21 08:56:04;;;;;;;7.72;3.13;;;;;;;14.81;72.19;101715.91;5011248;28;20503;-47
2023/11/21 08:58:32;;;;;;;8.38;3.35;;;;;;;15.05;71.85;101728.38;5011718;28;20037;-46
2023/11/21 09:00:57;;;;;;;8.02;3.92;;;;;;;14.81;71.87;101723.78;5011914;28;20037;-46
2023/11/21 09:03:22;;;;;;;8.32;3.80;;;;;;;15.13;71.44;101747.66;5010638;28;20021;-49
2023/11/21 09:05:48;;;;;;;8.30;3.95;;;;;;;15.24;70.80;101753.91;5011662;28;20034;-46
2023/11/21 09:08:13;;;;;;;8.13;4.07;;;;;;;15.06;71.53;101752.03;5011603;28;20239;-46
2023/11/21 09:10:39;;;;;;;7.88;3.95;;;;;;;14.98;71.67;101753.69;5013193;28;20038;-51
2023/11/21 09:13:04;;;;;;;9.02;4.00;;;;;;;15.02;71.87;101758.97;5012275;28;20042;-44
2023/11/21 09:15:30;;;;;;;9.13;3.60;;;;;;;15.05;71.09;101755.50;5012971;28;20494;-44
2023/11/21 09:17:56;;;;;;;8.70;3.85;;;;;;;15.08;71.27;101755.53;5011686;28;20046;-47
2023/11/21 09:20:22;;;;;;;7.72;3.60;;;;;;;15.02;72.26;101761.59;5009862;28;20030;-51
2023/11/21 09:22:48;;;;;;;10.32;3.90;;;;;;;14.92;72.01;101766.75;5011743;28;20048;-46
2023/11/21 09:25:14;;;;;;;8.27;3.83;;;;;;;14.98;71.91;101772.06;5011432;28;20611;-49
2023/11/21 09:27:40;;;;;;;7.28;4.25;;;;;;;15.26;70.76;101784.56;5011461;28;20411;-45
2023/11/21 09:30:09;;;;;;;7.18;4.28;;;;;;;14.91;71.98;101783.38;5010702;28;20053;-45
2023/11/21 09:32:37;;;;;;;8.15;4.20;;;;;;;15.17;71.40;101783.63;5013038;28;20033;-45
2023/11/21 09:35:02;;;;;;;8.13;4.57;;;;;;;14.72;72.01;101791.91;5012755;28;20038;-50
2023/11/21 09:37:28;;;;;;;8.23;4.30;;;;;;;14.96;72.07;101800.03;5013112;28;20045;-49
2023/11/21 09:39:53;;;;;;;8.88;4.38;;;;;;;15.12;71.35;101801.09;5012151;28;20582;-44
2023/11/21 09:42:32;;;;;;;7.82;4.43;;;;;;;15.18;71.16;101812.53;5011151;28;21078;-46
2023/11/21 09:45:25;;;;;;;9.90;5.20;;;;;;;14.73;72.46;101819.94;5011114;28;20676;-48
2023/11/21 09:47:53;;;;;;;9.55;4.82;;;;;;;15.01;71.81;101821.97;5010733;28;20042;-54
2023/11/21 09:50:21;;;;;;;10.68;5.50;;;;;;;14.97;72.33;101836.84;5010617;28;20038;-47
2023/11/21 09:52:59;;;;;;;10.63;5.85;;;;;;;15.13;71.31;101842.22;5010863;28;20461;-44
2023/11/21 09:55:29;;;;;;;11.50;5.93;;;;;;;14.99;71.77;101844.72;5010106;28;20055;-44
2023/11/21 09:57:56;;;;;;;11.55;6.20;;;;;;;14.93;71.97;101855.16;5010993;28;20051;-45
2023/11/21 10:00:27;;;;;;;10.93;5.80;;;;;;;15.14;71.43;101851.88;5010120;28;20112;-47
2023/11/21 10:02:53;;;;;;;10.30;5.72;;;;;;;15.26;71.23;101860.75;5009925;28;20575;-47
2023/11/21 10:05:19;;;;;;;10.95;5.93;;;;;;;15.23;71.34;101868.63;5009912;28;20125;-48
2023/11/21 10:07:46;;;;;;;10.75;5.82;;;;;;;15.38;70.56;101868.75;5010679;28;20047;-47
2023/11/21 10:10:11;;;;;;;9.80;5.55;;;;;;;15.44;69.89;101876.69;5009930;28;20092;-50
2023/11/21 10:12:38;;;;;;;12.70;6.00;;;;;;;14.97;71.45;101886.72;5010516;28;20034;-45
2023/11/21 10:15:07;;;;;;;10.70;6.03;;;;;;;14.96;71.73;101890.22;5009623;28;20076;-45
2023/11/21 10:17:42;;;;;;;10.77;6.38;;;;;;;14.63;72.32;101883.69;5011746;28;20110;-45
2023/11/21 10:20:11;;;;;;;11.05;6.03;;;;;;;14.65;72.60;101890.69;5011507;28;20546;-50
2023/11/21 10:22:41;;;;;;;11.32;5.95;;;;;;;14.66;72.50;101896.81;5010382;28;20042;-46
2023/11/21 10:25:07;;;;;;;9.45;5.53;;;;;;;14.71;71.77;101901.28;5009879;28;20034;-50
2023/11/21 10:27:33;;;;;;;9.50;5.38;;;;;;;15.03;70.94;101905.19;5010332;28;20048;-45
2023/11/21 10:30:04;;;;;;;8.65;5.50;;;;;;;15.01;71.09;101908.63;5010204;28;20038;-48
2023/11/21 10:32:32;;;;;;;10.15;5.65;;;;;;;15.15;70.27;101912.31;5010261;28;20092;-46
2023/11/21 10:35:06;;;;;;;9.77;5.53;;;;;;;14.88;71.43;101923.34;5009876;28;20057;-44
2023/11/21 10:37:34;;;;;;;9.82;5.97;;;;;;;14.94;71.21;101926.06;5008838;28;20065;-47
2023/11/21 10:39:59;;;;;;;10.18;5.40;;;;;;;14.95;71.01;101925.19;5010374;28;20381;-47
2023/11/21 10:42:25;;;;;;;10.23;5.60;;;;;;;14.71;71.29;101927.53;5010270;28;20056;-50
2023/11/21 10:44:52;;;;;;;10.65;5.90;;;;;;;14.70;71.84;101931.00;5010342;28;20034;-46
2023/11/21 10:47:19;;;;;;;9.98;5.88;;;;;;;14.59;71.78;101930.84;5010407;28;20033;-46
2023/11/21 10:49:47;;;;;;;9.10;5.57;;;;;;;14.86;71.44;101934.72;5010026;28;20030;-45
2023/11/21 10:52:17;;;;;;;11.02;5.47;;;;;;;14.85;71.10;101943.47;5010305;28;20451;-44
2023/11/21 10:54:46;;;;;;;9.90;5.93;;;;;;;15.03;70.93;101934.06;5010578;28;20080;-46
2023/11/21 10:57:17;;;;;;;9.18;5.20;;;;;;;15.05;70.51;101943.72;5010528;28;20033;-46
2023/11/21 10:59:47;;;;;;;9.45;5.05;;;;;;;15.07;70.28;101934.97;5010328;28;20062;-44
2023/11/21 11:02:27;;;;;;;9.07;4.88;;;;;;;15.01;71.08;101942.78;5009985;28;20042;-45
2023/11/21 11:04:57;;;;;;;7.50;4.65;;;;;;;15.20;69.66;101942.13;5012586;28;20046;-50
2023/11/21 11:07:26;;;;;;;8.82;5.13;;;;;;;14.61;71.05;101952.78;5013132;28;20029;-47
2023/11/21 11:09:56;;;;;;;9.13;5.07;;;;;;;15.05;70.67;101939.34;5018642;28;20037;-46
2023/11/21 11:12:22;;;;;;;10.65;5.50;;;;;;;14.96;70.48;101953.22;5021399;28;20038;-46
2023/11/21 11:14:48;;;;;;;10.20;5.53;;;;;;;15.10;69.20;101948.16;5019900;28;20056;-45
2023/11/21 11:17:14;;;;;;;11.73;6.18;;;;;;;15.17;69.32;101947.38;5014838;28;20180;-46